Time;durP1;ratioP1;P1;durP2;ratioP2;P2;SDS_P1;SDS_P2;PMS_P1;PMS_P2;Temp;Humidity;BMP_temperature;BMP_pressure;BME280_temperature;BME280_humidity;BME280_pressure;Samples;Min_cycle;Max_cycle;Signal;HPM_P1;HPM_P2
2022/11/07 00:00:03;;;;;;;46.22;18.80;;;;;;;1.02;75.88;100911.13;4874290;28;20051;-65
2022/11/07 00:02:53;;;;;;;31.83;15.32;;;;;;;1.17;75.10;100896.19;4926606;28;20058;-65
2022/11/07 00:05:33;;;;;;;;;;;;;;;1.39;73.77;100902.88;4885715;28;20049;-64
2022/11/07 00:08:18;;;;;;;35.28;13.95;;;;;;;1.62;73.12;100890.72;4933979;28;19985;-65
2022/11/07 00:11:09;;;;;;;30.13;13.00;;;;;;;1.79;72.03;100892.91;4894798;28;20062;-65
2022/11/07 00:13:49;;;;;;;33.05;12.50;;;;;;;1.85;71.24;100888.81;4941116;28;20040;-65
2022/11/07 00:16:50;;;;;;;44.70;17.20;;;;;;;1.96;71.13;100896.84;4901968;28;20142;-64
2022/11/07 00:19:55;;;;;;;40.20;15.48;;;;;;;2.05;70.65;100891.97;4933908;28;20049;-64
2022/11/07 00:22:47;;;;;;;70.68;24.00;;;;;;;2.19;69.57;100878.59;4875404;28;20048;-66
2022/11/07 00:25:34;;;;;;;90.05;26.55;;;;;;;2.27;69.69;100883.13;4896625;28;20041;-65
2022/11/07 00:28:22;;;;;;;75.22;28.50;;;;;;;2.26;70.03;100880.50;4950155;28;20463;-64
2022/11/07 00:31:16;;;;;;;74.43;28.30;;;;;;;2.21;70.25;100871.78;4900539;28;20120;-65
2022/11/07 00:33:57;;;;;;;66.43;27.38;;;;;;;2.29;69.96;100875.41;4898696;28;20134;-65
2022/11/07 00:36:54;;;;;;;71.88;25.20;;;;;;;2.34;68.56;100873.84;4937902;28;20045;-65
2022/11/07 00:39:56;;;;;;;67.63;25.95;;;;;;;2.51;68.32;100877.75;4898684;28;20045;-65
2022/11/07 00:42:47;;;;;;;89.78;29.25;;;;;;;2.72;68.24;100876.53;4886129;28;20049;-65
2022/11/07 00:45:32;;;;;;;123.80;56.50;;;;;;;2.90;67.83;100879.59;4898097;28;20052;-65
2022/11/07 00:48:13;;;;;;;65.10;25.63;;;;;;;3.07;66.95;100863.63;4926462;28;20036;-64
2022/11/07 00:51:00;;;;;;;54.35;23.05;;;;;;;3.11;65.57;100868.03;4891272;28;20120;-65
2022/11/07 00:53:40;;;;;;;64.38;22.95;;;;;;;3.20;65.17;100870.84;4890807;28;20065;-66
2022/11/07 00:56:23;;;;;;;77.70;27.15;;;;;;;3.37;65.36;100869.53;4924860;28;20046;-65
2022/11/07 00:59:05;;;;;;;69.85;25.75;;;;;;;3.63;64.79;100861.47;4909432;28;20061;-65
2022/11/07 01:01:56;;;;;;;54.80;21.15;;;;;;;3.69;64.37;100861.56;4916073;28;20054;-65
2022/11/07 01:05:16;;;;;;;47.60;20.27;;;;;;;3.71;63.62;100852.16;4812083;28;20048;-64
2022/11/07 01:08:03;;;;;;;;;;;;;;;3.78;63.13;100851.44;4898972;28;20056;-64
2022/11/07 01:10:50;;;;;;;32.55;13.70;;;;;;;3.93;62.44;100855.19;4910492;28;19938;-63
2022/11/07 01:13:34;;;;;;;46.67;14.75;;;;;;;4.00;61.91;100836.38;4897002;28;20061;-63
2022/11/07 01:16:16;;;;;;;33.58;12.90;;;;;;;4.22;61.40;100850.56;4907844;28;20071;-64
2022/11/07 01:19:08;;;;;;;28.83;13.43;;;;;;;4.39;60.31;100845.69;4914754;28;20039;-63
2022/11/07 01:21:53;;;;;;;34.60;13.68;;;;;;;4.59;60.53;100839.16;4875967;28;20052;-63
2022/11/07 01:24:42;;;;;;;34.65;14.00;;;;;;;4.59;59.45;100839.16;4916064;28;20137;-62
2022/11/07 01:27:44;;;;;;;22.98;11.27;;;;;;;4.80;59.85;100837.78;4886617;28;20036;-62
2022/11/07 01:33:26;;;;;;;29.65;9.90;;;;;;;5.46;57.01;100826.69;4929518;28;20074;-62
2022/11/07 01:36:18;;;;;;;23.15;9.50;;;;;;;5.58;57.44;100834.63;4928298;28;20046;-62
2022/11/07 01:39:06;;;;;;;20.27;8.88;;;;;;;5.48;56.24;100796.47;4888081;28;20538;-62
2022/11/07 01:41:50;;;;;;;16.52;9.13;;;;;;;5.46;55.64;100821.50;4915138;28;20481;-63
2022/11/07 01:44:59;;;;;;;19.38;8.32;;;;;;;5.21;56.44;100819.41;4898531;28;20048;-62
2022/11/07 01:47:45;;;;;;;18.65;7.57;;;;;;;5.05;56.98;100811.44;4896967;28;20383;-62
2022/11/07 01:50:21;;;;;;;18.92;9.60;;;;;;;4.96;56.59;100819.03;4921572;28;20052;-62
2022/11/07 01:53:08;;;;;;;14.43;7.53;;;;;;;4.95;56.42;100818.19;4911258;28;20223;-63
2022/11/07 02:01:49;;;;;;;17.10;7.88;;;;;;;5.44;55.22;100799.84;4851560;28;20062;-62
2022/11/07 02:04:36;;;;;;;16.63;8.05;;;;;;;5.63;55.42;100817.41;4917119;28;20048;-62
2022/11/07 02:07:22;;;;;;;16.35;7.88;;;;;;;5.73;53.92;100791.59;4877742;28;20037;-63
2022/11/07 02:10:09;;;;;;;18.15;8.25;;;;;;;5.95;53.59;100795.34;4899991;28;20171;-62
2022/11/07 02:13:32;;;;;;;15.45;7.72;;;;;;;5.97;53.56;100794.50;4863840;28;20044;-62
2022/11/07 02:16:35;;;;;;;17.58;8.05;;;;;;;5.59;53.94;100730.09;4914793;28;20485;-62
2022/11/07 02:19:27;;;;;;;13.93;7.97;;;;;;;6.04;53.20;100790.22;4916919;28;20075;-62
2022/11/07 02:22:25;;;;;;;;;;;;;;;6.02;52.71;100781.59;4884774;28;20551;-63
2022/11/07 02:25:25;;;;;;;13.15;7.57;;;;;;;5.72;52.87;100753.56;4866785;28;19925;-62
2022/11/07 02:28:20;;;;;;;17.30;8.32;;;;;;;5.52;52.52;100780.13;4853906;28;20346;-62
2022/11/07 02:31:18;;;;;;;13.57;7.75;;;;;;;5.35;52.91;100776.44;4892690;28;20129;-62
2022/11/07 02:34:13;;;;;;;17.55;8.38;;;;;;;5.26;53.95;100781.50;4882175;28;20079;-62
2022/11/07 02:37:00;;;;;;;17.30;9.07;;;;;;;5.18;53.65;100779.66;4889046;28;20067;-63
2022/11/07 02:39:54;;;;;;;19.73;10.02;;;;;;;5.17;53.91;100770.16;4916420;28;20044;-62
2022/11/07 02:43:18;;;;;;;17.33;9.60;;;;;;;5.18;51.32;100774.47;4902683;28;20075;-62
2022/11/07 02:46:15;;;;;;;22.02;11.38;;;;;;;4.99;49.12;100769.88;4920918;28;20044;-62
2022/11/07 02:48:54;;;;;;;18.92;11.20;;;;;;;4.83;50.07;100749.81;4898115;28;20071;-63
2022/11/07 02:51:37;;;;;;;30.58;11.30;;;;;;;4.93;49.77;100787.94;4907119;28;20055;-62
2022/11/07 02:54:35;;;;;;;19.52;11.25;;;;;;;4.95;49.98;100765.53;4902109;28;20432;-63
2022/11/07 02:57:33;;;;;;;21.17;10.85;;;;;;;4.96;50.12;100773.28;4893505;28;20045;-63
2022/11/07 03:00:30;;;;;;;19.98;11.43;;;;;;;5.00;48.67;100768.19;4900380;28;20056;-62
2022/11/07 03:03:10;;;;;;;22.50;12.27;;;;;;;5.01;48.19;100759.56;4866412;28;20050;-62
2022/11/07 03:05:48;;;;;;;17.08;10.30;;;;;;;4.30;48.52;100655.84;4915930;28;20051;-62
2022/11/07 03:11:18;;;;;;;25.17;11.15;;;;;;;5.04;49.37;100752.72;4852882;28;20311;-62
2022/11/07 03:14:00;;;;;;;24.88;11.88;;;;;;;5.07;49.63;100760.53;4938554;28;20302;-62
2022/11/07 03:19:46;;;;;;;22.65;10.80;;;;;;;5.33;49.10;100747.03;4923589;28;20168;-63
2022/11/07 03:22:32;;;;;;;19.60;11.05;;;;;;;5.51;48.82;100747.25;4891489;28;20060;-62
2022/11/07 05:44:37;;;;;;;39.05;20.85;;;;;;;5.03;52.07;100670.66;4912829;28;20058;-63
2022/11/07 05:47:28;;;;;;;36.15;21.17;;;;;;;5.05;52.45;100663.78;4916502;28;20041;-62
2022/11/07 05:50:19;;;;;;;45.78;23.35;;;;;;;4.99;52.04;100674.06;4903879;28;20037;-61
2022/11/07 05:53:16;;;;;;;43.53;24.08;;;;;;;4.93;52.21;100663.63;4919047;28;20081;-62
2022/11/07 05:55:56;;;;;;;42.60;22.70;;;;;;;4.89;52.11;100667.03;4930489;28;20055;-62
2022/11/07 05:58:52;;;;;;;38.85;22.00;;;;;;;4.85;53.05;100660.09;4915214;28;20112;-62
2022/11/07 06:02:02;;;;;;;43.25;22.20;;;;;;;4.89;53.20;100657.56;4867195;28;20040;-62
2022/11/07 06:07:49;;;;;;;43.30;23.75;;;;;;;4.85;53.27;100660.09;4882284;28;20051;-62
2022/11/07 06:10:32;;;;;;;37.47;22.35;;;;;;;4.83;53.57;100656.59;4876916;28;20128;-62
2022/11/07 06:13:28;;;;;;;40.42;22.33;;;;;;;4.59;53.83;100632.09;4907102;28;20041;-61
2022/11/07 06:16:05;;;;;;;36.85;23.13;;;;;;;4.82;53.78;100654.84;4915194;28;20033;-61
2022/11/07 06:19:01;;;;;;;41.60;23.42;;;;;;;4.83;54.38;100647.09;4895759;28;20044;-62
2022/11/07 06:21:41;;;;;;;40.88;22.52;;;;;;;4.81;54.72;100637.56;4912221;28;20040;-62
2022/11/07 06:24:25;;;;;;;39.88;23.50;;;;;;;4.78;54.68;100647.91;4909686;28;20071;-62
2022/11/07 06:27:18;;;;;;;42.38;23.27;;;;;;;4.76;55.50;100648.72;4937129;28;20054;-62
2022/11/07 06:30:16;;;;;;;38.90;22.05;;;;;;;4.71;56.24;100642.63;4902913;28;20040;-63
2022/11/07 06:32:53;;;;;;;38.10;22.85;;;;;;;4.71;55.82;100652.13;4920110;28;20082;-62
2022/11/07 06:38:34;;;;;;;36.63;21.98;;;;;;;4.59;56.53;100650.22;4842673;28;20064;-64
2022/11/07 06:41:23;;;;;;;40.53;21.73;;;;;;;4.57;56.54;100649.34;4910116;28;20061;-63
2022/11/07 06:44:08;;;;;;;39.92;22.20;;;;;;;4.47;56.73;100647.47;4886226;28;20059;-62
2022/11/07 06:46:56;;;;;;;38.90;21.70;;;;;;;4.44;57.74;100652.59;4878428;28;20041;-64
2022/11/07 06:49:44;;;;;;;36.75;22.55;;;;;;;4.36;56.96;100654.19;4866496;28;20078;-64
2022/11/07 06:55:43;;;;;;;42.63;23.58;;;;;;;4.11;57.36;100654.66;4923013;28;20041;-64
2022/11/07 06:58:31;;;;;;;40.05;23.40;;;;;;;4.00;57.05;100660.53;4921284;28;20045;-64
2022/11/07 07:01:30;;;;;;;43.75;22.92;;;;;;;3.86;57.33;100653.41;4920175;28;20091;-64
2022/11/07 07:04:15;;;;;;;40.47;24.15;;;;;;;3.78;58.16;100660.16;4924171;28;20078;-64
2022/11/07 07:06:58;;;;;;;58.42;31.33;;;;;;;3.64;59.44;100661.63;4918155;28;20144;-64
2022/11/07 07:13:50;;;;;;;48.95;27.52;;;;;;;3.48;59.46;100667.38;4949626;28;20053;-64
2022/11/07 07:16:48;;;;;;;55.50;26.95;;;;;;;3.40;59.46;100668.09;4919504;28;20090;-65
2022/11/07 07:19:37;;;;;;;53.33;27.67;;;;;;;3.36;59.48;100661.09;4918829;28;20052;-64
2022/11/07 07:22:20;;;;;;;49.20;26.33;;;;;;;3.27;59.10;100671.28;4904665;28;20049;-64
2022/11/07 07:25:12;;;;;;;46.28;25.52;;;;;;;3.18;59.52;100665.91;4901787;28;20139;-64
2022/11/07 07:27:59;;;;;;;42.47;24.27;;;;;;;3.16;61.19;100668.47;4900574;28;20056;-66
2022/11/07 07:31:10;;;;;;;42.55;24.17;;;;;;;3.02;60.29;100665.63;4895663;28;20052;-63
2022/11/07 07:34:14;;;;;;;42.35;22.70;;;;;;;2.83;60.98;100658.31;4814466;28;20043;-64
2022/11/07 07:37:23;;;;;;;43.70;23.15;;;;;;;2.70;62.22;100666.66;4822610;28;20077;-64
2022/11/07 07:40:18;;;;;;;50.20;25.00;;;;;;;2.61;61.80;100656.09;4790645;28;20489;-64
2022/11/07 07:45:54;;;;;;;;;;;;;;;2.51;61.37;100661.06;4837152;28;20074;-64
2022/11/07 07:48:54;;;;;;;44.67;23.52;;;;;;;2.40;61.81;100667.69;4791510;28;19934;-65
2022/11/07 07:51:42;;;;;;;45.75;25.00;;;;;;;2.33;63.08;100673.53;4807413;28;20122;-64
2022/11/07 07:54:32;;;;;;;50.03;26.20;;;;;;;2.27;63.67;100671.69;4833323;28;20102;-64
2022/11/07 07:57:23;;;;;;;47.03;24.58;;;;;;;2.23;64.04;100674.16;4873544;28;21552;-65
2022/11/07 08:00:09;;;;;;;45.78;26.02;;;;;;;2.15;64.29;100672.25;4827639;28;20113;-65
2022/11/07 08:05:58;;;;;;;53.90;27.75;;;;;;;2.06;63.76;100666.88;4822482;28;20058;-67
2022/11/07 08:08:45;;;;;;;49.63;28.75;;;;;;;1.97;64.11;100656.31;4819075;28;20579;-65
2022/11/07 08:11:33;;;;;;;49.72;27.45;;;;;;;1.94;64.42;100666.56;4802211;28;20038;-66
2022/11/07 08:14:21;;;;;;;53.92;28.23;;;;;;;1.93;64.20;100669.97;4840865;28;20094;-64
2022/11/07 08:17:09;;;;;;;53.03;26.65;;;;;;;1.82;64.59;100666.25;4829294;28;20094;-64
2022/11/07 08:20:32;;;;;;;63.65;29.20;;;;;;;1.84;65.13;100669.75;4829990;28;20061;-64
2022/11/07 08:23:53;;;;;;;81.15;36.83;;;;;;;1.84;65.55;100680.91;4797839;28;20073;-64
2022/11/07 08:26:44;;;;;;;51.90;25.98;;;;;;;1.52;66.53;100610.53;4830059;28;20050;-64
2022/11/07 08:29:26;;;;;;;43.55;25.05;;;;;;;1.85;66.49;100661.19;4845314;28;20050;-63
2022/11/07 08:35:11;;;;;;;47.25;24.70;;;;;;;2.03;66.05;100671.97;4834854;28;20050;-65
2022/11/07 08:38:00;;;;;;;;;;;;;;;2.08;66.37;100675.50;4842996;28;20066;-64
2022/11/07 08:41:03;;;;;;;47.95;23.00;;;;;;;2.10;66.47;100679.00;4844447;28;19988;-65
2022/11/07 08:44:11;;;;;;;41.22;22.48;;;;;;;2.11;66.51;100685.91;4855999;28;20515;-64
2022/11/07 08:46:58;;;;;;;40.83;22.65;;;;;;;2.06;66.29;100666.88;4774224;28;20565;-65
2022/11/07 08:49:51;;;;;;;53.47;24.48;;;;;;;1.93;66.37;100660.53;4845810;28;20057;-65
2022/11/07 08:52:33;;;;;;;46.42;23.90;;;;;;;2.32;66.30;100688.16;4856406;28;20046;-65
2022/11/07 08:55:30;;;;;;;48.20;24.63;;;;;;;2.35;65.96;100689.91;4858402;28;20337;-65
2022/11/07 09:01:09;;;;;;;42.03;23.13;;;;;;;2.23;65.73;100679.31;4894700;28;20001;-65
2022/11/07 09:04:15;;;;;;;39.85;22.70;;;;;;;2.32;65.84;100700.13;4926058;28;20052;-65
2022/11/07 09:10:02;;;;;;;43.30;22.48;;;;;;;2.30;65.63;100704.41;4902574;28;20055;-64
2022/11/07 09:12:52;;;;;;;38.35;21.48;;;;;;;2.26;65.65;100700.00;4909872;28;20102;-64
2022/11/07 09:15:52;;;;;;;40.67;21.98;;;;;;;2.27;65.92;100696.56;4834311;28;20499;-64
2022/11/07 09:18:33;;;;;;;37.58;21.17;;;;;;;2.24;66.03;100709.41;4889888;28;20040;-65
2022/11/07 09:21:19;;;;;;;37.30;21.58;;;;;;;1.49;65.95;100569.25;4922075;28;20096;-65
2022/11/07 09:24:03;;;;;;;41.65;21.75;;;;;;;2.24;65.76;100701.66;4898569;28;20086;-65
2022/11/07 09:26:48;;;;;;;37.10;21.92;;;;;;;2.11;66.01;100685.03;4840118;28;20053;-66
2022/11/07 09:29:27;;;;;;;39.80;21.70;;;;;;;2.15;66.38;100708.34;4876879;28;20037;-65
2022/11/07 09:32:23;;;;;;;40.28;21.40;;;;;;;2.12;66.56;100692.81;4915849;28;20109;-65
2022/11/07 09:35:15;;;;;;;37.53;20.58;;;;;;;2.07;66.47;100696.97;4910646;28;20369;-65
2022/11/07 09:37:59;;;;;;;39.17;21.75;;;;;;;2.09;66.68;100697.88;4925171;28;20523;-65
2022/11/07 09:40:57;;;;;;;42.72;22.30;;;;;;;2.02;65.80;100680.53;4888100;28;20102;-66
2022/11/07 09:44:05;;;;;;;42.13;22.73;;;;;;;2.13;65.76;100702.28;4901686;28;20046;-66
2022/11/07 09:46:56;;;;;;;37.25;21.10;;;;;;;2.12;66.16;100702.22;4903111;28;20050;-65
2022/11/07 09:49:44;;;;;;;42.35;21.35;;;;;;;2.10;66.20;100694.47;4918316;28;20084;-65
2022/11/07 09:52:39;;;;;;;41.63;20.15;;;;;;;2.08;66.29;100701.28;4894127;28;20056;-66
2022/11/07 09:55:27;;;;;;;39.53;22.55;;;;;;;2.04;65.65;100699.47;4925276;28;20102;-66
2022/11/07 09:58:26;;;;;;;44.63;22.80;;;;;;;1.93;66.05;100695.75;4920256;28;20053;-66
2022/11/07 10:01:24;;;;;;;44.93;23.00;;;;;;;1.76;66.41;100691.88;4900561;28;20048;-67
2022/11/07 10:04:05;;;;;;;42.45;23.02;;;;;;;1.66;66.29;100699.34;4899933;28;20045;-66
2022/11/07 10:07:19;;;;;;;37.83;20.67;;;;;;;1.69;67.08;100696.84;4826176;28;20045;-67
2022/11/07 10:10:08;;;;;;;43.35;22.98;;;;;;;1.65;67.09;100692.47;4911831;28;20516;-67
2022/11/07 10:13:27;;;;;;;46.90;23.60;;;;;;;1.50;66.61;100702.34;4888367;28;20048;-66
2022/11/07 10:20:14;;;;;;;49.25;25.65;;;;;;;1.09;68.12;100696.91;4884517;28;20077;-67
2022/11/07 10:26:47;;;;;;;49.05;24.42;;;;;;;0.84;69.27;100696.19;4869808;28;20048;-66
2022/11/07 10:29:31;;;;;;;47.45;25.08;;;;;;;0.46;69.65;100653.00;4861644;28;20379;-66
2022/11/07 10:32:40;;;;;;;45.83;24.88;;;;;;;0.62;69.68;100693.78;4908403;28;20049;-66
2022/11/07 10:35:38;;;;;;;47.85;25.90;;;;;;;0.53;70.65;100689.25;4902873;28;20044;-66
2022/11/07 10:38:30;;;;;;;63.85;30.63;;;;;;;0.50;71.17;100689.16;4910180;28;20390;-65
2022/11/07 10:43:57;;;;;;;56.33;28.48;;;;;;;0.36;71.67;100691.28;4865664;28;20111;-66
2022/11/07 10:46:42;;;;;;;52.97;27.30;;;;;;;0.17;71.88;100683.78;4891902;28;20050;-66
2022/11/07 10:49:37;;;;;;;51.17;28.27;;;;;;;0.07;71.84;100681.75;4893211;28;20048;-67
2022/11/07 10:52:26;;;;;;;;;;;;;;;0.01;72.01;100681.56;4934044;28;20056;-66
2022/11/07 10:55:27;;;;;;;56.92;27.40;;;;;;;-0.01;72.02;100678.94;4924579;28;19916;-67
2022/11/07 10:58:22;;;;;;;66.63;31.02;;;;;;;-0.13;71.81;100668.25;4880668;28;20049;-68
2022/11/07 11:01:04;;;;;;;106.82;44.15;;;;;;;-0.09;72.64;100686.38;4906697;28;20047;-67
2022/11/07 11:03:53;;;;;;;100.43;41.85;;;;;;;-0.15;72.83;100686.19;4924843;28;20177;-67
2022/11/07 11:06:41;;;;;;;120.70;49.03;;;;;;;-0.69;72.96;100598.78;4876841;28;20045;-67
2022/11/07 11:09:19;;;;;;;90.88;39.65;;;;;;;-0.16;73.49;100679.28;4902400;28;20088;-66
2022/11/07 11:12:20;;;;;;;68.72;33.05;;;;;;;-0.16;73.37;100694.72;4924953;28;20091;-66
2022/11/07 11:18:25;;;;;;;65.78;29.13;;;;;;;-0.31;74.49;100678.78;4944230;28;20086;-65
2022/11/07 11:25:08;;;;;;;61.85;28.65;;;;;;;-0.29;74.94;100684.84;4790750;28;20073;-65
2022/11/07 11:28:02;;;;;;;53.05;28.48;;;;;;;-0.33;74.63;100680.41;4770425;28;20085;-66
2022/11/07 11:34:27;;;;;;;;;;;;;;;-0.32;75.24;100687.31;4850471;28;20137;-66
2022/11/07 11:37:26;;;;;;;56.20;27.35;;;;;;;-0.43;75.51;100674.97;4838328;28;19977;-65
2022/11/07 11:40:30;;;;;;;56.25;26.38;;;;;;;-0.28;76.26;100684.00;4818295;28;20128;-66
2022/11/07 11:43:23;;;;;;;56.35;27.50;;;;;;;-0.57;76.39;100639.38;4813821;28;20057;-66
2022/11/07 11:46:10;;;;;;;54.35;26.75;;;;;;;-0.52;76.33;100658.38;4848162;28;20499;-66
2022/11/07 11:48:54;;;;;;;55.38;28.95;;;;;;;-0.38;76.78;100687.09;4835076;28;20081;-66
2022/11/07 11:51:42;;;;;;;51.97;27.30;;;;;;;-0.34;76.84;100678.69;4845009;28;20101;-66
2022/11/07 11:55:04;;;;;;;51.47;27.00;;;;;;;-0.43;77.10;100674.97;4814518;28;20049;-66
2022/11/07 12:01:10;;;;;;;52.15;27.02;;;;;;;-0.75;76.90;100640.50;4843369;28;20046;-66
2022/11/07 12:03:59;;;;;;;76.85;31.88;;;;;;;-0.44;77.31;100680.91;4911281;28;20079;-66
2022/11/07 12:07:09;;;;;;;79.95;35.70;;;;;;;-0.39;77.55;100680.22;4896122;28;20056;-66
2022/11/07 12:10:10;;;;;;;67.77;28.30;;;;;;;-0.55;76.85;100659.16;4909378;28;20045;-64
2022/11/07 12:13:22;;;;;;;58.72;27.98;;;;;;;-0.44;77.02;100675.78;4894318;28;20278;-64
2022/11/07 12:16:24;;;;;;;61.63;28.02;;;;;;;-0.59;76.55;100667.56;4898326;28;20060;-64
2022/11/07 12:19:11;;;;;;;60.83;29.50;;;;;;;-0.64;76.01;100669.09;4917059;28;20072;-65
2022/11/07 12:22:07;;;;;;;59.00;26.75;;;;;;;-0.76;75.96;100669.53;4906774;28;20037;-65
2022/11/07 12:25:08;;;;;;;45.38;23.85;;;;;;;-0.94;75.86;100669.72;4832057;28;20064;-65
2022/11/07 12:28:03;;;;;;;36.50;19.13;;;;;;;-1.12;76.81;100638.28;4872041;28;20057;-66
2022/11/07 12:30:58;;;;;;;35.90;18.20;;;;;;;-1.02;76.80;100668.59;4919607;28;20040;-65
2022/11/07 12:33:53;;;;;;;57.15;23.70;;;;;;;-1.15;77.28;100658.66;4896063;28;20054;-65
2022/11/07 12:36:48;;;;;;;74.22;27.80;;;;;;;-1.02;78.30;100650.63;4928111;28;20122;-67
2022/11/07 12:40:07;;;;;;;94.35;35.70;;;;;;;-0.98;78.07;100652.47;4894165;28;20061;-65
2022/11/07 12:43:06;;;;;;;261.00;71.47;;;;;;;-0.92;77.69;100657.84;4891640;28;20041;-65
2022/11/07 12:46:04;;;;;;;88.57;32.10;;;;;;;-0.91;77.44;100648.44;4843229;28;20049;-65
2022/11/07 12:48:59;;;;;;;49.70;23.10;;;;;;;-0.76;76.79;100651.56;4819451;28;20038;-65
2022/11/07 12:51:59;;;;;;;33.20;18.77;;;;;;;-0.52;76.55;100638.72;4892360;28;20041;-66
2022/11/07 12:54:51;;;;;;;163.25;53.78;;;;;;;-0.29;76.30;100651.47;4903465;28;20063;-66
2022/11/07 12:57:35;;;;;;;102.72;34.35;;;;;;;-0.37;76.14;100645.22;4893503;28;20037;-65
2022/11/07 13:00:20;;;;;;;36.25;18.73;;;;;;;-0.48;75.66;100630.28;4934251;28;20053;-66
2022/11/07 13:03:26;;;;;;;33.72;17.05;;;;;;;-0.47;75.42;100637.19;4933098;28;20076;-66
2022/11/07 13:06:37;;;;;;;46.17;21.90;;;;;;;-0.52;75.97;100641.28;4931852;28;20041;-65
2022/11/07 13:09:25;;;;;;;58.42;23.40;;;;;;;-0.64;76.19;100633.16;4886041;28;20292;-65
2022/11/07 13:12:35;;;;;;;57.95;24.63;;;;;;;-0.74;76.04;100624.25;4855004;28;20119;-65
2022/11/07 13:15:21;;;;;;;72.75;30.27;;;;;;;-0.69;76.75;100619.31;4909995;28;20052;-65
2022/11/07 13:18:27;;;;;;;50.05;23.05;;;;;;;-0.79;76.86;100612.09;4902177;28;20146;-66
2022/11/07 13:21:36;;;;;;;47.50;21.02;;;;;;;-0.83;77.00;100612.81;4919948;28;20048;-66
2022/11/07 13:24:54;;;;;;;50.15;22.88;;;;;;;-0.83;77.38;100607.69;4798267;28;20052;-65
2022/11/07 13:27:52;;;;;;;59.83;27.73;;;;;;;-1.02;77.36;100589.09;4854924;28;20050;-65
2022/11/07 13:30:55;;;;;;;75.50;33.47;;;;;;;-1.01;77.43;100601.06;4866000;28;20038;-65
2022/11/07 13:33:45;;;;;;;72.30;33.15;;;;;;;-1.35;77.65;100548.59;4831980;28;20067;-66
2022/11/07 13:39:28;;;;;;;80.68;39.15;;;;;;;-1.20;77.57;100585.84;4810064;28;20069;-66
2022/11/07 13:42:27;;;;;;;99.40;44.53;;;;;;;-1.23;78.38;100572.91;4865472;28;20051;-66
2022/11/07 13:45:31;;;;;;;95.10;45.40;;;;;;;-1.25;78.43;100569.41;4834697;28;20043;-65
2022/11/07 13:48:20;;;;;;;107.00;50.10;;;;;;;-1.29;78.84;100568.44;4850074;28;20094;-65
2022/11/07 13:51:17;;;;;;;100.22;47.47;;;;;;;-1.35;78.02;100563.06;4911421;28;20088;-66
2022/11/07 13:54:07;;;;;;;94.30;44.47;;;;;;;-1.36;78.76;100561.34;4911008;28;20049;-65
2022/11/07 13:56:56;;;;;;;86.57;39.75;;;;;;;-1.26;79.63;100563.41;4902591;28;20110;-65
2022/11/07 13:59:55;;;;;;;87.22;44.20;;;;;;;-1.35;78.77;100563.97;4851368;28;20055;-66
2022/11/07 14:02:36;;;;;;;94.68;44.78;;;;;;;-1.66;79.10;100509.84;4854892;28;20045;-65
2022/11/07 14:05:17;;;;;;;92.10;45.08;;;;;;;-1.41;79.50;100557.75;4924701;28;20048;-66
2022/11/07 14:08:08;;;;;;;94.85;45.65;;;;;;;-2.19;79.22;100425.94;4901427;28;20603;-66
2022/11/07 14:10:50;;;;;;;89.80;43.42;;;;;;;-2.03;79.40;100457.25;4926474;28;20044;-66
2022/11/07 14:13:42;;;;;;;100.18;45.83;;;;;;;-1.47;79.28;100557.50;4895206;28;20314;-66
2022/11/07 14:16:34;;;;;;;96.10;46.05;;;;;;;-1.55;79.31;100541.84;4924438;28;20053;-66
2022/11/07 14:19:29;;;;;;;98.65;45.40;;;;;;;-1.57;79.77;100536.69;4937579;28;20375;-67
2022/11/07 14:22:20;;;;;;;96.25;46.80;;;;;;;-1.43;79.80;100544.84;4898770;28;20060;-67
2022/11/07 14:25:31;;;;;;;93.57;44.67;;;;;;;-1.46;79.95;100544.75;4894724;28;20073;-67
2022/11/07 14:28:20;;;;;;;94.45;46.63;;;;;;;-1.56;79.54;100517.91;4891074;28;20047;-67
2022/11/07 14:31:04;;;;;;;98.50;45.67;;;;;;;-1.46;79.60;100537.06;4854159;28;20183;-66
2022/11/07 14:33:58;;;;;;;;;;;;;;;-1.44;79.49;100548.25;4858798;28;20046;-66
2022/11/07 14:36:38;;;;;;;98.72;46.47;;;;;;;-1.43;79.81;100552.53;4845615;28;19921;-66
2022/11/07 14:45:19;;;;;;;92.22;43.88;;;;;;;-1.37;79.72;100545.09;4883077;28;20116;-66
2022/11/07 14:48:25;;;;;;;99.32;46.45;;;;;;;-1.37;79.91;100542.53;4896171;28;20056;-66
2022/11/07 14:51:11;;;;;;;96.70;46.60;;;;;;;-1.32;80.33;100552.97;4860553;28;20102;-66
2022/11/07 14:54:16;;;;;;;98.97;45.70;;;;;;;-2.09;80.24;100416.06;4898011;28;20053;-67
2022/11/07 14:57:00;;;;;;;93.70;45.17;;;;;;;-1.33;80.01;100549.50;4896145;28;20041;-67
2022/11/07 15:00:09;;;;;;;101.80;48.38;;;;;;;-1.35;79.82;100542.56;4869218;28;20056;-66
2022/11/07 15:02:50;;;;;;;102.18;47.70;;;;;;;-1.37;80.06;100539.97;4802543;28;20078;-66
2022/11/07 15:05:35;;;;;;;94.13;48.58;;;;;;;-1.32;80.04;100547.84;4819629;28;20131;-66
2022/11/07 15:08:36;;;;;;;96.57;46.22;;;;;;;-1.32;80.35;100546.13;4843454;28;20054;-66
2022/11/07 15:11:31;;;;;;;92.88;43.65;;;;;;;-1.43;80.62;100519.22;4822599;28;20046;-67
2022/11/07 15:14:28;;;;;;;106.07;47.85;;;;;;;-1.28;80.41;100543.66;4822564;28;20067;-66
2022/11/07 15:17:30;;;;;;;108.90;49.83;;;;;;;-1.32;80.82;100543.56;4821828;28;20039;-66
2022/11/07 15:20:26;;;;;;;105.80;49.05;;;;;;;-1.29;80.72;100536.81;4816221;28;20051;-66
2022/11/07 15:23:36;;;;;;;116.80;51.88;;;;;;;-1.58;80.60;100482.81;4806929;28;20161;-67
2022/11/07 15:30:10;;;;;;;112.10;51.05;;;;;;;-1.28;81.01;100528.28;4811399;28;20047;-67
2022/11/07 15:32:49;;;;;;;118.47;53.42;;;;;;;-1.25;80.50;100533.53;4799936;28;20048;-67
2022/11/07 15:35:32;;;;;;;106.05;48.75;;;;;;;-1.81;80.92;100439.28;4772412;29;20057;-67
2022/11/07 15:38:21;;;;;;;103.03;48.63;;;;;;;-1.16;80.98;100549.25;4814508;28;20047;-68
2022/11/07 15:41:06;;;;;;;99.03;49.65;;;;;;;-1.17;80.73;100527.00;4808802;28;20624;-68
2022/11/07 15:44:02;;;;;;;92.70;45.88;;;;;;;-1.18;80.71;100540.63;4876793;28;20050;-67
2022/11/07 15:47:09;;;;;;;88.20;44.25;;;;;;;-1.21;80.59;100535.38;4874953;28;20463;-67
2022/11/07 15:49:53;;;;;;;98.43;46.85;;;;;;;-1.21;81.01;100535.38;4862226;28;20042;-68
2022/11/07 15:52:35;;;;;;;101.10;47.78;;;;;;;-1.26;80.97;100536.91;4843921;28;20628;-68
2022/11/07 15:55:22;;;;;;;100.05;47.90;;;;;;;-1.46;80.35;100524.25;4866910;28;20045;-67
2022/11/07 15:58:06;;;;;;;90.13;44.30;;;;;;;-1.44;80.43;100527.75;4869393;28;20049;-67
2022/11/07 16:03:59;;;;;;;85.78;43.22;;;;;;;-1.27;82.03;100519.75;4866916;28;20100;-67
2022/11/07 16:06:51;;;;;;;84.85;42.30;;;;;;;-2.01;81.31;100395.03;4828535;28;20050;-68
2022/11/07 16:09:30;;;;;;;81.63;40.78;;;;;;;-1.16;81.78;100523.59;4833608;28;20069;-67
2022/11/07 16:12:14;;;;;;;91.57;43.03;;;;;;;-1.10;81.64;100523.78;4858494;28;20053;-67
2022/11/07 16:14:49;;;;;;;85.57;42.67;;;;;;;-1.15;80.78;100530.47;4869789;28;20050;-67
2022/11/07 16:20:35;;;;;;;91.18;48.47;;;;;;;-1.15;81.25;100535.59;4858635;28;20050;-67
2022/11/07 16:23:23;;;;;;;95.80;48.72;;;;;;;-1.20;81.59;100519.16;4871592;28;20043;-67
2022/11/07 16:26:09;;;;;;;95.25;50.40;;;;;;;-1.07;81.88;100518.81;4895694;28;20322;-67
2022/11/07 16:29:01;;;;;;;95.03;46.63;;;;;;;-1.04;81.69;100534.28;4895450;28;20044;-67
2022/11/07 16:31:43;;;;;;;;;;;;;;;-0.99;82.02;100540.44;4852556;28;20044;-67
2022/11/07 16:35:03;;;;;;;88.78;42.17;;;;;;;-1.03;81.67;100533.44;4938495;28;20006;-67
2022/11/07 16:38:02;;;;;;;82.90;38.83;;;;;;;-1.14;81.08;100540.78;4913410;28;20040;-68
2022/11/07 16:40:50;;;;;;;74.03;38.90;;;;;;;-1.23;81.38;100539.59;4917136;28;20044;-68
2022/11/07 16:43:36;;;;;;;77.75;39.13;;;;;;;-1.44;81.03;100530.31;4886386;28;20049;-67
2022/11/07 16:46:33;;;;;;;89.60;40.38;;;;;;;-1.56;81.23;100527.28;4916106;28;20429;-67
2022/11/07 16:49:18;;;;;;;71.35;35.35;;;;;;;-1.57;81.06;100538.38;4907504;28;20050;-67
2022/11/07 16:52:03;;;;;;;76.47;36.47;;;;;;;-1.70;81.06;100533.59;4928408;28;20334;-67
2022/11/07 16:54:52;;;;;;;;;;;;;;;-1.90;81.01;100537.97;4925339;28;20536;-67